createdAt,value
2023-02-01T00:00:42.271Z,16.37
2023-02-01T00:01:55.930Z,16.39
2023-02-01T00:03:08.730Z,16.37
2023-02-01T00:04:12.432Z,16.39
2023-02-01T00:05:25.224Z,16.39
2023-02-01T00:06:38.927Z,16.37
2023-02-01T00:07:41.755Z,16.37
2023-02-01T00:08:55.429Z,16.39
2023-02-01T00:10:08.225Z,16.39
2023-02-01T00:11:21.899Z,16.37
2023-02-01T00:12:24.736Z,16.36
2023-02-01T00:13:38.398Z,16.36
2023-02-01T00:14:51.374Z,16.36
2023-02-01T00:15:54.942Z,16.35
2023-02-01T00:17:07.796Z,16.37
2023-02-01T00:18:21.389Z,16.35
2023-02-01T00:19:24.248Z,16.36
2023-02-01T00:20:37.897Z,16.36
2023-02-01T00:21:50.691Z,16.36
2023-02-01T00:22:54.427Z,16.35
2023-02-01T00:24:07.233Z,16.32
2023-02-01T00:25:20.899Z,16.33
2023-02-01T00:26:33.796Z,16.33
2023-02-01T00:27:37.929Z,16.33
2023-02-01T00:28:50.755Z,16.32
2023-02-01T00:30:04.400Z,16.33
2023-02-01T00:31:07.443Z,16.32
2023-02-01T00:32:21.432Z,16.33
2023-02-01T00:33:34.220Z,16.3
2023-02-01T00:34:37.899Z,16.28
2023-02-01T00:35:50.716Z,16.3
2023-02-01T00:37:04.391Z,16.3
2023-02-01T00:38:07.240Z,16.3
2023-02-01T00:39:20.923Z,16.3
2023-02-01T00:40:33.733Z,16.32
2023-02-01T00:41:37.630Z,16.29
2023-02-01T00:42:50.549Z,16.29
2023-02-01T00:44:04.446Z,16.3
2023-02-01T00:45:07.508Z,16.29
2023-02-01T00:46:20.958Z,16.3
2023-02-01T00:47:33.838Z,16.3
2023-02-01T00:48:47.613Z,16.3
2023-02-01T00:49:50.482Z,16.28
2023-02-01T00:51:04.022Z,16.3
2023-02-01T00:52:16.796Z,16.29
2023-02-01T00:53:20.909Z,16.26
2023-02-01T00:54:33.723Z,16.29
2023-02-01T00:55:47.392Z,16.28
2023-02-01T00:56:50.237Z,16.26
2023-02-01T00:58:03.896Z,16.28
2023-02-01T00:59:16.709Z,16.26
2023-02-01T01:00:20.631Z,16.28
2023-02-01T01:01:33.833Z,16.26
2023-02-01T01:02:47.394Z,16.26
2023-02-01T01:03:50.270Z,16.28
2023-02-01T01:05:03.897Z,16.26
2023-02-01T01:06:16.786Z,16.25
2023-02-01T01:07:30.436Z,16.25
2023-02-01T01:08:33.283Z,16.23
2023-02-01T01:09:46.898Z,16.25
2023-02-01T01:10:59.700Z,16.23
2023-02-01T01:12:03.441Z,16.22
2023-02-01T01:13:16.339Z,16.25
2023-02-01T01:14:29.920Z,16.25
2023-02-01T01:15:32.792Z,16.25
2023-02-01T01:16:46.431Z,16.26
2023-02-01T01:17:59.290Z,16.23
2023-02-01T01:19:02.930Z,16.23
2023-02-01T01:20:15.735Z,16.22
2023-02-01T01:21:29.453Z,16.22
2023-02-01T01:22:32.364Z,16.25
2023-02-01T01:23:45.927Z,16.2
2023-02-01T01:24:59.011Z,16.2
2023-02-01T01:26:12.420Z,16.2
2023-02-01T01:27:15.290Z,16.2
2023-02-01T01:28:28.921Z,16.2
2023-02-01T01:29:41.741Z,16.23
2023-02-01T01:30:45.979Z,16.22
2023-02-01T01:31:58.948Z,16.2
2023-02-01T01:33:12.428Z,16.2
2023-02-01T01:34:15.260Z,16.22
2023-02-01T01:35:48.936Z,16.22
2023-02-01T01:36:41.879Z,16.2
2023-02-01T01:37:44.698Z,16.22
2023-02-01T01:38:58.402Z,16.23
2023-02-01T01:40:11.205Z,16.22
2023-02-01T01:41:14.949Z,16.23
2023-02-01T01:42:27.747Z,16.23
2023-02-01T01:43:41.448Z,16.23
2023-02-01T01:44:54.287Z,16.23
2023-02-01T01:45:57.951Z,16.2
2023-02-01T01:47:10.784Z,16.2
2023-02-01T01:48:24.403Z,16.22
2023-02-01T01:49:27.376Z,16.22
2023-02-01T01:50:40.924Z,16.23
2023-02-01T01:51:53.726Z,16.22
2023-02-01T01:52:57.426Z,16.2
2023-02-01T01:54:10.247Z,16.2
2023-02-01T01:55:23.999Z,16.22
2023-02-01T01:56:26.977Z,16.19
2023-02-01T01:57:40.436Z,16.22
2023-02-01T01:58:53.316Z,16.22
2023-02-01T02:00:06.921Z,16.2
2023-02-01T02:01:09.798Z,16.19
2023-02-01T02:02:23.517Z,16.19
2023-02-01T02:03:36.423Z,16.19
2023-02-01T02:04:39.912Z,16.18
2023-02-01T02:05:52.723Z,16.19
2023-02-01T02:07:06.438Z,16.16
2023-02-01T02:10:43.122Z,16.15
2023-02-01T02:11:45.974Z,16.18
2023-02-01T02:12:49.818Z,16.15
2023-02-01T02:14:02.656Z,16.18
2023-02-01T02:15:16.225Z,16.18
2023-02-01T02:16:19.129Z,16.2
2023-02-01T02:17:32.725Z,16.19
2023-02-01T02:18:45.512Z,16.18
2023-02-01T02:19:59.234Z,16.19
2023-02-01T02:21:02.090Z,16.16
2023-02-01T02:22:15.724Z,16.15
2023-02-01T02:23:28.565Z,16.16
2023-02-01T02:24:32.276Z,16.19
2023-02-01T02:25:45.085Z,16.16
2023-02-01T02:26:58.719Z,16.16
2023-02-01T02:28:01.565Z,16.15
2023-02-01T02:29:15.212Z,16.13
2023-02-01T02:30:28.102Z,16.13
2023-02-01T02:31:41.722Z,16.15
2023-02-01T02:32:44.639Z,16.15
2023-02-01T02:33:58.726Z,16.15
2023-02-01T02:35:11.572Z,16.13
2023-02-01T02:36:15.257Z,16.13
2023-02-01T02:37:28.080Z,16.12
2023-02-01T02:38:41.692Z,16.12
2023-02-01T02:39:44.874Z,16.12
2023-02-01T02:40:58.704Z,16.12
2023-02-01T02:42:11.515Z,16.15
2023-02-01T02:43:15.230Z,16.12
2023-02-01T02:44:27.944Z,16.13
2023-02-01T02:45:41.410Z,16.12
2023-02-01T02:46:44.132Z,16.15
2023-02-01T02:47:57.745Z,16.12
2023-02-01T02:49:10.333Z,16.09
2023-02-01T02:50:24.375Z,16.12
2023-02-01T02:51:27.336Z,16.13
2023-02-01T02:52:41.220Z,16.12
2023-02-01T02:53:44.062Z,16.12
2023-02-01T02:54:57.747Z,16.12
2023-02-01T02:56:10.583Z,16.12
2023-02-01T02:57:24.761Z,16.1
2023-02-01T02:58:27.700Z,16.1
2023-02-01T02:59:41.229Z,16.12
2023-02-01T03:00:54.090Z,16.12
2023-02-01T03:01:57.723Z,16.1
2023-02-01T03:03:10.560Z,16.12
2023-02-01T03:04:24.213Z,16.09
2023-02-01T03:06:43.588Z,16.09
2023-02-01T03:07:46.424Z,16.12
2023-02-01T03:09:00.257Z,16.08
2023-02-01T03:10:13.151Z,16.06
2023-02-01T03:11:16.737Z,16.09
2023-02-01T03:12:29.559Z,16.1
2023-02-01T03:13:43.255Z,16.12
2023-02-01T03:14:46.094Z,16.08
2023-02-01T03:15:59.746Z,16.08
2023-02-01T03:17:12.568Z,16.08
2023-02-01T03:18:29.799Z,16.09
2023-02-01T03:19:32.631Z,16.09
2023-02-01T03:20:46.226Z,16.08
2023-02-01T03:21:49.128Z,16.08
2023-02-01T03:24:06.353Z,16.09
2023-02-01T03:24:09.425Z,16.08
2023-02-01T03:25:22.254Z,16.12
2023-02-01T03:26:36.243Z,16.1
2023-02-01T03:27:39.123Z,16.12
2023-02-01T03:28:52.753Z,16.12
2023-02-01T03:30:05.588Z,16.09
2023-02-01T03:31:09.316Z,16.1
2023-02-01T03:32:22.274Z,16.1
2023-02-01T03:33:35.732Z,16.12
2023-02-01T03:34:38.610Z,16.09
2023-02-01T03:35:52.259Z,16.1
2023-02-01T03:37:05.119Z,16.1
2023-02-01T03:38:18.784Z,16.12
2023-02-01T03:39:21.658Z,16.08
2023-02-01T03:40:35.264Z,16.06
2023-02-01T03:41:48.095Z,16.05
2023-02-01T03:42:51.747Z,16.1
2023-02-01T03:44:04.593Z,16.08
2023-02-01T03:45:18.214Z,16.08
2023-02-01T03:46:21.118Z,16.06
2023-02-01T03:47:34.730Z,16.06
2023-02-01T03:48:47.568Z,16.06
2023-02-01T03:49:51.261Z,16.06
2023-02-01T03:51:04.102Z,16.05
2023-02-01T03:52:17.776Z,16.06
2023-02-01T03:53:20.780Z,16.05
2023-02-01T03:54:34.261Z,16.05
2023-02-01T03:55:47.100Z,16.05
2023-02-01T03:57:00.755Z,16.05
2023-02-01T03:58:03.696Z,16.06
2023-02-01T03:59:17.250Z,16.02
2023-02-01T04:00:30.091Z,16.03
2023-02-01T04:01:33.802Z,16.03
2023-02-01T04:02:46.821Z,16.03
2023-02-01T04:04:00.733Z,16.03
2023-02-01T04:05:03.689Z,16.03
2023-02-01T04:06:17.408Z,16.03
2023-02-01T04:07:30.240Z,16.03
2023-02-01T04:08:33.757Z,16.03
2023-02-01T04:09:46.610Z,16.03
2023-02-01T04:11:00.250Z,16.03
2023-02-01T04:12:03.106Z,16.02
2023-02-01T04:13:16.968Z,16.01
2023-02-01T04:14:29.813Z,16.01
2023-02-01T04:15:33.253Z,15.99
2023-02-01T04:16:46.144Z,15.99
2023-02-01T04:18:03.279Z,16.02
2023-02-01T04:19:09.601Z,15.99
2023-02-01T04:20:13.253Z,16.01
2023-02-01T04:21:26.078Z,16.02
2023-02-01T04:22:43.925Z,15.98
2023-02-01T04:23:46.807Z,16.02
2023-02-01T04:25:00.255Z,16.02
2023-02-01T04:26:03.149Z,16.01
2023-02-01T04:27:16.756Z,16.01
2023-02-01T04:32:00.682Z,16.05
2023-02-01T04:33:03.523Z,16.03
2023-02-01T04:34:17.270Z,16.05
2023-02-01T04:35:30.095Z,16.05
2023-02-01T04:36:46.339Z,16.05
2023-02-01T04:37:50.213Z,16.05
2023-02-01T04:39:03.775Z,16.05
2023-02-01T04:40:06.683Z,16.05
2023-02-01T04:41:20.778Z,16.05
2023-02-01T04:42:33.626Z,16.03
2023-02-01T04:43:37.235Z,16.05
2023-02-01T04:44:50.080Z,16.03
2023-02-01T04:46:03.780Z,16.02
2023-02-01T04:47:06.801Z,16.02
2023-02-01T04:48:20.281Z,15.99
2023-02-01T04:49:32.996Z,16.01
2023-02-01T04:50:36.748Z,15.99
2023-02-01T04:51:49.628Z,16.01
2023-02-01T04:53:03.229Z,15.98
2023-02-01T04:54:06.095Z,15.99
2023-02-01T04:55:19.774Z,15.99
2023-02-01T04:56:32.637Z,15.99
2023-02-01T04:57:46.250Z,15.98
2023-02-01T04:58:49.162Z,16.01
2023-02-01T05:00:02.841Z,16.01
2023-02-01T05:01:15.723Z,15.98
2023-02-01T05:02:19.774Z,15.96
2023-02-01T05:03:32.662Z,15.99
2023-02-01T05:04:46.305Z,15.98
2023-02-01T05:05:49.283Z,16.01
2023-02-01T05:07:02.788Z,15.96
2023-02-01T05:08:15.614Z,15.96
2023-02-01T05:09:19.274Z,15.98
2023-02-01T05:10:32.104Z,15.96
2023-02-01T05:11:45.765Z,15.96
2023-02-01T05:12:48.628Z,15.95
2023-02-01T05:14:02.747Z,15.95
2023-02-01T05:15:15.736Z,15.95
2023-02-01T05:16:19.281Z,15.95
2023-02-01T05:17:32.150Z,15.96
2023-02-01T05:18:46.768Z,15.96
2023-02-01T05:19:47.938Z,15.96
2023-02-01T05:21:01.754Z,15.96
2023-02-01T05:22:14.600Z,15.96
2023-02-01T05:23:18.278Z,15.96
2023-02-01T05:24:31.132Z,15.96
2023-02-01T05:25:44.773Z,15.96
2023-02-01T05:26:57.630Z,15.98
2023-02-01T05:28:01.248Z,15.98
2023-02-01T05:29:14.079Z,15.99
2023-02-01T05:30:27.784Z,15.96
2023-02-01T05:31:30.751Z,15.98
2023-02-01T05:32:44.786Z,15.96
2023-02-01T05:33:57.613Z,15.98
2023-02-01T05:35:01.305Z,15.99
2023-02-01T05:36:14.226Z,16.01
2023-02-01T05:37:27.777Z,15.99
2023-02-01T05:38:30.625Z,15.99
2023-02-01T05:39:44.297Z,15.99
2023-02-01T05:40:57.186Z,16.01
2023-02-01T05:42:00.793Z,16.02
2023-02-01T05:43:13.626Z,16.01
2023-02-01T05:44:27.271Z,16.02
2023-02-01T05:45:30.146Z,16.01
2023-02-01T05:46:43.788Z,16.01
2023-02-01T05:47:56.629Z,16.01
2023-02-01T05:49:20.257Z,16.03
2023-02-01T05:50:13.221Z,16.02
2023-02-01T05:51:26.796Z,16.02
2023-02-01T05:52:39.801Z,16.01
2023-02-01T05:53:43.273Z,16.05
2023-02-01T05:54:56.074Z,16.16
2023-02-01T05:56:09.759Z,16.25
2023-02-01T05:57:12.551Z,16.36
2023-02-01T05:58:26.254Z,16.47
2023-02-01T06:03:09.840Z,16.97
2023-02-01T06:04:12.506Z,17.1
2023-02-01T06:05:25.792Z,17.2
2023-02-01T06:06:38.404Z,17.29
2023-02-01T06:07:51.789Z,17.38
2023-02-01T06:08:54.438Z,17.45
2023-02-01T06:10:07.751Z,17.54
2023-02-01T06:11:31.889Z,17.59
2023-02-01T06:12:26.261Z,17.68
2023-02-01T06:13:38.808Z,17.72
2023-02-01T06:14:42.275Z,17.73
2023-02-01T06:15:54.816Z,17.8
2023-02-01T06:17:08.275Z,17.79
2023-02-01T06:18:20.801Z,17.85
2023-02-01T06:20:43.687Z,17.85
2023-02-01T06:21:46.281Z,17.82
2023-02-01T06:22:59.823Z,17.83
2023-02-01T06:24:02.447Z,17.8
2023-02-01T06:25:15.827Z,17.79
2023-02-01T06:26:28.366Z,17.73
2023-02-01T06:27:41.842Z,17.71
2023-02-01T06:28:44.441Z,17.66
2023-02-01T06:29:57.815Z,17.58
2023-02-01T06:31:10.454Z,17.58
2023-02-01T06:32:13.833Z,17.54
2023-02-01T06:33:26.512Z,17.52
2023-02-01T06:34:39.844Z,17.48
2023-02-01T06:35:42.518Z,17.45
2023-02-01T06:36:55.808Z,17.42
2023-02-01T06:38:08.395Z,17.39
2023-02-01T06:39:21.842Z,17.38
2023-02-01T06:40:24.797Z,17.36
2023-02-01T06:41:38.301Z,17.34
2023-02-01T06:42:50.909Z,17.34
2023-02-01T06:43:54.331Z,17.34
2023-02-01T06:45:06.908Z,17.36
2023-02-01T06:46:20.385Z,17.38
2023-02-01T06:47:23.142Z,17.39
2023-02-01T06:48:36.303Z,17.43
2023-02-01T06:49:48.878Z,17.45
2023-02-01T06:51:02.367Z,17.48
2023-02-01T06:52:04.971Z,17.51
2023-02-01T06:53:18.323Z,17.55
2023-02-01T06:54:30.856Z,17.58
2023-02-01T06:55:34.335Z,17.58
2023-02-01T06:56:46.877Z,17.62
2023-02-01T06:58:00.357Z,17.66
2023-02-01T06:59:03.001Z,17.68
2023-02-01T07:00:16.356Z,17.72
2023-02-01T07:01:28.888Z,17.73
2023-02-01T07:02:42.356Z,17.79
2023-02-01T07:03:44.942Z,17.8
2023-02-01T07:04:58.306Z,17.82
2023-02-01T07:06:10.847Z,17.86
2023-02-01T07:07:14.349Z,17.87
2023-02-01T07:08:26.851Z,17.92
2023-02-01T07:09:40.336Z,17.93
2023-02-01T07:10:42.911Z,17.96
2023-02-01T07:11:56.338Z,18.0
2023-02-01T07:13:08.864Z,18.03
2023-02-01T07:14:22.324Z,18.07
2023-02-01T07:15:25.483Z,18.09
2023-02-01T07:16:38.866Z,18.12
2023-02-01T07:17:51.450Z,18.13
2023-02-01T07:18:54.844Z,18.14
2023-02-01T07:20:07.360Z,18.19
2023-02-01T07:21:20.811Z,18.19
2023-02-01T07:22:23.568Z,18.2
2023-02-01T07:23:36.839Z,18.23
2023-02-01T07:24:49.377Z,18.27
2023-02-01T07:25:52.847Z,18.24
2023-02-01T07:27:05.366Z,18.26
2023-02-01T07:28:18.835Z,18.29
2023-02-01T07:29:31.319Z,18.33
2023-02-01T07:30:34.902Z,18.33
2023-02-01T07:31:47.463Z,18.37
2023-02-01T07:33:00.820Z,18.36
2023-02-01T07:34:03.465Z,18.37
2023-02-01T07:35:16.820Z,18.38
2023-02-01T07:36:29.517Z,18.41
2023-02-01T07:37:32.854Z,18.44
2023-02-01T07:38:45.366Z,18.43
2023-02-01T07:39:58.827Z,18.45
2023-02-01T07:41:01.429Z,18.47
2023-02-01T07:42:14.861Z,18.45
2023-02-01T07:43:27.415Z,18.45
2023-02-01T07:44:40.835Z,18.48
2023-02-01T07:45:43.414Z,18.5
2023-02-01T07:46:56.860Z,18.45
2023-02-01T07:48:09.395Z,18.45
2023-02-01T07:49:12.812Z,18.45
2023-02-01T07:50:25.555Z,18.47
2023-02-01T07:51:39.328Z,18.43
2023-02-01T07:52:41.961Z,18.41
2023-02-01T07:53:56.378Z,18.41
2023-02-01T07:55:09.094Z,18.38
2023-02-01T07:56:12.369Z,18.4
2023-02-01T07:57:24.859Z,18.4
2023-02-01T07:58:37.856Z,18.41
2023-02-01T07:59:40.255Z,18.4
2023-02-01T08:00:53.962Z,18.43
2023-02-01T08:02:06.280Z,18.41
2023-02-01T08:03:19.332Z,18.44
2023-02-01T08:04:21.972Z,18.45
2023-02-01T08:05:35.370Z,18.45
2023-02-01T08:06:47.859Z,18.5
2023-02-01T08:07:51.336Z,18.5
2023-02-01T08:09:03.832Z,18.5
2023-02-01T08:10:17.354Z,18.51
2023-02-01T08:11:19.922Z,18.54
2023-02-01T08:12:33.343Z,18.55
2023-02-01T08:13:46.071Z,18.58
2023-02-01T08:14:59.346Z,18.6
2023-02-01T08:16:01.913Z,18.62
2023-02-01T08:17:15.365Z,18.61
2023-02-01T08:18:27.866Z,18.65
2023-02-01T08:19:31.373Z,18.65
2023-02-01T08:20:43.850Z,18.69
2023-02-01T08:21:57.340Z,18.68
2023-02-01T08:22:59.919Z,18.73
2023-02-01T08:24:13.359Z,18.69
2023-02-01T08:25:25.844Z,18.74
2023-02-01T08:26:39.344Z,18.73
2023-02-01T08:27:41.894Z,18.75
2023-02-01T08:28:55.867Z,18.77
2023-02-01T08:30:08.360Z,18.77
2023-02-01T08:31:11.849Z,18.8
2023-02-01T08:32:24.320Z,18.78
2023-02-01T08:33:37.863Z,18.81
2023-02-01T08:34:40.424Z,18.82
2023-02-01T08:35:53.855Z,18.84
2023-02-01T08:37:06.332Z,18.84
2023-02-01T08:38:19.360Z,18.85
2023-02-01T08:39:21.904Z,18.87
2023-02-01T08:40:35.358Z,18.91
2023-02-01T08:41:47.788Z,18.91
2023-02-01T08:42:51.335Z,18.94
2023-02-01T08:44:03.797Z,18.94
2023-02-01T08:45:16.854Z,18.95
2023-02-01T08:46:19.407Z,18.96
2023-02-01T08:47:32.841Z,18.98
2023-02-01T08:48:46.174Z,18.98
2023-02-01T08:49:59.378Z,18.99
2023-02-01T08:51:01.885Z,18.99
2023-02-01T08:52:16.356Z,19.04
2023-02-01T08:53:19.078Z,19.02
2023-02-01T08:54:32.376Z,19.04
2023-02-01T08:55:44.812Z,19.02
2023-02-01T08:56:58.338Z,19.05
2023-02-01T08:58:00.874Z,19.08
2023-02-01T08:59:14.372Z,19.08
2023-02-01T09:00:26.990Z,19.09
2023-02-01T09:01:30.368Z,19.12
2023-02-01T09:02:42.879Z,19.15
2023-02-01T09:03:56.412Z,19.15
2023-02-01T09:05:08.893Z,19.16
2023-02-01T09:06:12.334Z,19.2
2023-02-01T09:07:24.792Z,19.19
2023-02-01T09:08:37.878Z,19.23
2023-02-01T09:09:40.421Z,19.26
2023-02-01T09:10:53.832Z,19.3
2023-02-01T09:12:06.245Z,19.32
2023-02-01T09:13:19.388Z,19.35
2023-02-01T09:14:21.883Z,19.36
2023-02-01T09:15:34.948Z,19.38
2023-02-01T09:16:47.505Z,19.4
2023-02-01T09:17:50.877Z,19.45
2023-02-01T09:19:24.361Z,19.47
2023-02-01T09:20:19.373Z,19.47
2023-02-01T09:21:21.856Z,19.53
2023-02-01T09:22:34.836Z,19.57
2023-02-01T09:23:47.231Z,19.57
2023-02-01T09:24:50.419Z,19.6
2023-02-01T09:26:02.944Z,19.62
2023-02-01T09:27:16.413Z,19.63
2023-02-01T09:28:18.961Z,19.67
2023-02-01T09:29:32.359Z,19.67
2023-02-01T09:30:44.893Z,19.7
2023-02-01T09:32:03.932Z,19.74
2023-02-01T09:33:06.979Z,19.71
2023-02-01T09:34:10.385Z,19.71
2023-02-01T09:35:22.760Z,19.77
2023-02-01T09:36:35.838Z,19.77
2023-02-01T09:37:38.335Z,19.8
2023-02-01T09:38:53.197Z,19.8
2023-02-01T09:40:05.898Z,19.81
2023-02-01T09:41:09.380Z,19.83
2023-02-01T09:42:21.850Z,19.84
2023-02-01T09:43:34.864Z,19.84
2023-02-01T09:44:47.257Z,19.81
2023-02-01T09:45:50.422Z,19.84
2023-02-01T09:47:02.965Z,19.84
2023-02-01T09:48:15.858Z,19.84
2023-02-01T09:49:18.329Z,19.87
2023-02-01T09:50:31.365Z,19.88
2023-02-01T09:51:43.730Z,19.87
2023-02-01T09:52:56.879Z,19.86
2023-02-01T09:53:59.313Z,19.86
2023-02-01T09:55:12.364Z,19.87
2023-02-01T09:56:24.780Z,19.84
2023-02-01T09:57:37.892Z,19.83
2023-02-01T09:58:40.434Z,19.81
2023-02-01T09:59:53.348Z,19.86
2023-02-01T10:01:05.817Z,19.81
2023-02-01T10:02:09.361Z,19.83
2023-02-01T10:03:21.758Z,19.81
2023-02-01T10:04:34.894Z,19.81
2023-02-01T10:05:37.362Z,19.8
2023-02-01T10:06:51.164Z,19.78
2023-02-01T10:08:03.540Z,19.78
2023-02-01T10:09:16.879Z,19.8
2023-02-01T10:10:19.337Z,19.81
2023-02-01T10:11:32.360Z,19.8
2023-02-01T10:12:44.787Z,19.78
2023-02-01T10:13:47.863Z,19.81
2023-02-01T10:15:00.247Z,19.8
2023-02-01T10:16:13.469Z,19.8
2023-02-01T10:17:26.131Z,19.81
2023-02-01T10:18:29.359Z,19.78
2023-02-01T10:19:41.731Z,19.78
2023-02-01T10:20:54.856Z,19.78
2023-02-01T10:21:57.359Z,19.8
2023-02-01T10:23:26.869Z,19.77
2023-02-01T10:24:25.420Z,19.78
2023-02-01T10:25:27.875Z,19.78
2023-02-01T10:26:40.874Z,19.78
2023-02-01T10:27:53.336Z,19.78
2023-02-01T10:29:06.358Z,19.81
2023-02-01T10:30:08.828Z,19.77
2023-02-01T10:31:22.001Z,19.78
2023-02-01T10:32:34.505Z,19.8
2023-02-01T10:33:37.891Z,19.81
2023-02-01T10:34:50.261Z,19.78
2023-02-01T10:36:03.384Z,19.81
2023-02-01T10:37:15.768Z,19.8
2023-02-01T10:38:18.876Z,19.81
2023-02-01T10:39:31.267Z,19.83
2023-02-01T10:40:44.395Z,19.83
2023-02-01T10:41:46.858Z,19.84
2023-02-01T10:42:59.909Z,19.86
2023-02-01T10:44:12.286Z,19.83
2023-02-01T10:45:25.365Z,19.84
2023-02-01T10:46:27.902Z,19.84
2023-02-01T10:47:40.887Z,19.84
2023-02-01T10:48:53.253Z,19.83
2023-02-01T10:49:56.906Z,19.86
2023-02-01T10:51:09.258Z,19.84
2023-02-01T10:52:23.409Z,19.86
2023-02-01T10:53:25.980Z,19.83
2023-02-01T10:54:39.419Z,19.84
2023-02-01T10:55:52.078Z,19.84
2023-02-01T10:57:05.454Z,19.83
2023-02-01T10:58:07.944Z,19.83
2023-02-01T10:59:20.876Z,19.81
2023-02-01T11:00:33.328Z,19.84
2023-02-01T11:01:36.432Z,19.8
2023-02-01T11:02:48.983Z,19.83
2023-02-01T11:04:02.401Z,19.83
2023-02-01T11:05:04.935Z,19.83
2023-02-01T11:06:17.875Z,19.83
2023-02-01T11:07:30.277Z,19.78
2023-02-01T11:08:43.366Z,19.81
2023-02-01T11:09:45.865Z,19.81
2023-02-01T11:10:58.931Z,19.78
2023-02-01T11:12:11.331Z,19.78
2023-02-01T11:13:14.907Z,19.77
2023-02-01T11:14:27.385Z,19.76
2023-02-01T11:15:40.394Z,19.76
2023-02-01T11:16:53.004Z,19.76
2023-02-01T11:17:56.424Z,19.76
2023-02-01T11:19:08.827Z,19.74
2023-02-01T11:20:22.395Z,19.74
2023-02-01T11:21:24.892Z,19.73
2023-02-01T11:22:37.878Z,19.71
2023-02-01T11:23:50.280Z,19.71
2023-02-01T11:25:04.198Z,19.71
2023-02-01T11:26:06.683Z,19.71
2023-02-01T11:27:27.216Z,19.7
2023-02-01T11:28:30.317Z,19.71
2023-02-01T11:29:33.394Z,19.77
2023-02-01T11:30:45.800Z,19.74
2023-02-01T11:31:58.889Z,19.76
2023-02-01T11:33:11.285Z,19.76
2023-02-01T11:34:14.671Z,19.77
2023-02-01T11:35:27.251Z,19.73
2023-02-01T11:36:40.399Z,19.74
2023-02-01T11:37:42.896Z,19.77
2023-02-01T11:38:55.913Z,19.73
2023-02-01T11:40:08.132Z,19.76
2023-02-01T11:41:20.909Z,19.77
2023-02-01T11:42:23.310Z,19.76
2023-02-01T11:43:36.396Z,19.77
2023-02-01T11:44:48.746Z,19.74
2023-02-01T11:45:51.905Z,19.77
2023-02-01T11:47:04.273Z,19.77
2023-02-01T11:48:26.356Z,19.8
2023-02-01T11:49:29.501Z,19.8
2023-02-01T11:50:32.910Z,19.81
2023-02-01T11:51:45.264Z,19.83
2023-02-01T11:52:58.411Z,19.83
2023-02-01T11:54:00.863Z,19.83
2023-02-01T11:55:14.422Z,19.81
2023-02-01T11:56:26.768Z,19.86
2023-02-01T11:57:39.927Z,19.86
2023-02-01T11:58:42.395Z,19.86
2023-02-01T11:59:57.021Z,19.87
2023-02-01T12:01:09.591Z,19.84
2023-02-01T12:02:12.954Z,19.86
2023-02-01T12:03:25.422Z,19.84
2023-02-01T12:04:38.920Z,19.87
2023-02-01T12:05:41.360Z,19.87
2023-02-01T12:06:54.403Z,19.87
2023-02-01T12:08:06.825Z,19.86
2023-02-01T12:09:09.891Z,19.87
2023-02-01T12:10:22.682Z,19.87
2023-02-01T12:11:36.418Z,19.86
2023-02-01T12:12:39.035Z,19.86
2023-02-01T12:13:52.454Z,19.86
2023-02-01T12:15:04.801Z,19.86
2023-02-01T12:16:08.069Z,19.88
2023-02-01T12:17:20.519Z,19.86
2023-02-01T12:18:33.412Z,19.87
2023-02-01T12:19:35.820Z,19.87
2023-02-01T12:20:48.911Z,19.86
2023-02-01T12:22:01.110Z,19.88
2023-02-01T12:23:13.935Z,19.88
2023-02-01T12:24:16.297Z,19.91
2023-02-01T12:25:29.469Z,19.88
2023-02-01T12:26:41.998Z,19.88
2023-02-01T12:27:45.941Z,19.9
2023-02-01T12:28:58.298Z,19.9
2023-02-01T12:30:11.446Z,19.91
2023-02-01T12:31:23.813Z,19.9
2023-02-01T12:32:27.425Z,19.88
2023-02-01T12:33:39.760Z,19.91
2023-02-01T12:34:53.415Z,19.9
2023-02-01T12:35:55.873Z,19.93
2023-02-01T12:37:08.955Z,19.93
2023-02-01T12:38:21.356Z,19.94
2023-02-01T12:39:24.943Z,19.93
2023-02-01T12:40:37.295Z,19.96
2023-02-01T12:41:50.421Z,19.93
2023-02-01T12:42:53.746Z,19.96
2023-02-01T12:44:06.940Z,19.93
2023-02-01T12:45:19.328Z,19.94
2023-02-01T12:46:22.406Z,19.9
2023-02-01T12:47:34.715Z,19.9
2023-02-01T12:48:47.906Z,19.88
2023-02-01T12:50:00.318Z,19.88
2023-02-01T12:51:03.420Z,19.9
2023-02-01T12:52:15.768Z,19.9
2023-02-01T12:53:28.912Z,19.86
2023-02-01T12:54:31.353Z,19.88
2023-02-01T12:55:44.401Z,19.88
2023-02-01T12:56:56.766Z,19.9
2023-02-01T12:58:09.908Z,19.88
2023-02-01T12:59:12.371Z,19.88
2023-02-01T13:00:26.003Z,19.9
2023-02-01T13:01:38.643Z,19.87
2023-02-01T13:02:42.002Z,19.88
2023-02-01T13:03:54.523Z,19.87
2023-02-01T13:05:07.930Z,19.87
2023-02-01T13:06:10.350Z,19.87
2023-02-01T13:07:23.435Z,19.86
2023-02-01T13:08:35.800Z,19.87
2023-02-01T13:09:48.948Z,19.86
2023-02-01T13:10:51.413Z,19.84
2023-02-01T13:12:04.421Z,19.88
2023-02-01T13:13:16.766Z,19.87
2023-02-01T13:14:19.965Z,19.86
2023-02-01T13:15:32.316Z,19.86
2023-02-01T13:16:45.532Z,19.86
2023-02-01T13:17:48.096Z,19.88
2023-02-01T13:19:01.438Z,19.87
2023-02-01T13:20:13.838Z,19.84
2023-02-01T13:21:27.005Z,19.84
2023-02-01T13:22:29.515Z,19.86
2023-02-01T13:23:42.921Z,19.87
2023-02-01T13:24:55.273Z,19.86
2023-02-01T13:25:58.399Z,19.86
2023-02-01T13:27:10.772Z,19.84
2023-02-01T13:28:23.938Z,19.83
2023-02-01T13:29:26.472Z,19.84
2023-02-01T13:30:39.531Z,19.86
2023-02-01T13:31:52.101Z,19.84
2023-02-01T13:33:53.059Z,19.81
2023-02-01T13:34:08.835Z,19.83
2023-02-01T13:35:21.876Z,19.86
2023-02-01T13:36:35.458Z,19.86
2023-02-01T13:37:37.900Z,19.84
2023-02-01T13:38:50.940Z,19.84
2023-02-01T13:40:03.292Z,19.83
2023-02-01T13:41:06.416Z,19.84
2023-02-01T13:42:18.760Z,19.8
2023-02-01T13:43:31.952Z,19.78
2023-02-01T13:44:44.367Z,19.78
2023-02-01T13:45:47.967Z,19.78
2023-02-01T13:47:00.980Z,19.77
2023-02-01T13:48:14.414Z,19.78
2023-02-01T13:49:16.868Z,19.76
2023-02-01T13:50:29.952Z,19.74
2023-02-01T13:51:42.339Z,19.8
2023-02-01T13:52:45.455Z,19.77
2023-02-01T13:53:57.857Z,19.77
2023-02-01T13:55:10.948Z,19.77
2023-02-01T13:56:13.418Z,19.77
2023-02-01T13:57:26.415Z,19.76
2023-02-01T13:58:38.605Z,19.77
2023-02-01T13:59:51.431Z,19.78
2023-02-01T14:00:53.739Z,19.81
2023-02-01T14:02:06.933Z,19.8
2023-02-01T14:03:19.084Z,19.81
2023-02-01T14:04:31.998Z,19.81
2023-02-01T14:05:34.457Z,19.83
2023-02-01T14:06:47.459Z,19.86
2023-02-01T14:07:59.824Z,19.83
2023-02-01T14:09:03.447Z,19.84
2023-02-01T14:10:15.823Z,19.81
2023-02-01T14:11:28.966Z,19.83
2023-02-01T14:12:41.352Z,19.81
2023-02-01T14:13:44.911Z,19.84
2023-02-01T14:14:58.083Z,19.86
2023-02-01T14:16:11.472Z,19.84
2023-02-01T14:17:14.096Z,19.83
2023-02-01T14:18:28.420Z,19.84
2023-02-01T14:19:40.781Z,19.87
2023-02-01T14:20:43.934Z,19.86
2023-02-01T14:21:56.306Z,19.87
2023-02-01T14:23:09.943Z,19.9
2023-02-01T14:24:12.428Z,19.9
2023-02-01T14:25:26.029Z,19.88
2023-02-01T14:26:38.648Z,19.88
2023-02-01T14:27:41.943Z,19.94
2023-02-01T14:28:54.304Z,19.93
2023-02-01T14:30:07.464Z,19.94
2023-02-01T14:31:19.899Z,19.96
2023-02-01T14:32:23.460Z,19.97
2023-02-01T14:33:35.825Z,19.96
2023-02-01T14:34:49.022Z,19.94
2023-02-01T14:35:51.543Z,19.94
2023-02-01T14:37:04.435Z,19.96
2023-02-01T14:38:16.789Z,19.94
2023-02-01T14:39:19.949Z,19.98
2023-02-01T14:40:32.448Z,20.0
2023-02-01T14:41:45.471Z,19.98
2023-02-01T14:42:57.835Z,19.98
2023-02-01T14:44:00.959Z,19.97
2023-02-01T14:45:13.522Z,19.98
2023-02-01T14:46:27.025Z,20.01
2023-02-01T14:47:29.808Z,19.98
2023-02-01T14:48:43.455Z,20.0
2023-02-01T14:49:55.812Z,19.97
2023-02-01T14:50:58.939Z,20.03
2023-02-01T14:52:11.288Z,20.03
2023-02-01T14:53:24.470Z,20.03
2023-02-01T14:54:36.881Z,20.01
2023-02-01T14:55:40.002Z,20.03
2023-02-01T14:56:52.444Z,20.04
2023-02-01T14:58:05.468Z,20.03
2023-02-01T14:59:07.918Z,20.03
2023-02-01T15:00:20.970Z,20.03
2023-02-01T15:01:33.379Z,20.04
2023-02-01T15:02:46.467Z,20.01
2023-02-01T15:03:48.916Z,20.04
2023-02-01T15:05:01.974Z,20.07
2023-02-01T15:06:14.316Z,20.04
2023-02-01T15:07:17.466Z,20.11
2023-02-01T15:08:30.013Z,20.1
2023-02-01T15:09:42.959Z,20.1
2023-02-01T15:11:04.864Z,20.11
2023-02-01T15:11:58.448Z,20.1
2023-02-01T15:13:10.779Z,20.08
2023-02-01T15:14:23.991Z,20.11
2023-02-01T15:15:26.839Z,20.11
2023-02-01T15:16:39.983Z,20.13